»·PEaware :: N174YM KLAX-KPSP

N174YM :: KLAX-KPSP

FLIGHT INFORMATION

Flight Status: Arrived
Operator: Privately registered:
United States
More flights under this callsign
Pilot: Niftrik Air (14732)
Aircraft: Unknown
(0)
More flights by this aircraft type
Origin: KLAX Los Angeles Intl
United States
Destination: KPSP Palm Springs Intl
United States
More flights between these airports :: More routes between these airports
Route: SLI8 SLI V64 TRM
File this flight plan on PilotEdge
Remarks: IFR Training
Altitude:
(Current/Filed)
9,000ft
Speed:
(Current/Filed)
140kts
Departed: 08-Jan-21 09:39 AM
Arrived: 08-Jan-21 10:47 AM
Distance/Time
Traveled:
95nm/1:08
Distance/Time
To Go:
Arrived

Flight Plot

Page will automatically refresh every two minutes.

Flight plan parsing failed; only flown route is shown


Map Options




Map Legend


Flown Route
Filed Route
Departure Airport
Arrival Airport
Navaid (VOR, NDB)
Fix

Horizontal Profiles

Position Reports

Time Latitude Longitude Heading Altitude Ground
Speed
08-Jan-21 08:56 33.939820 -118.419765 79 127ft 0kts
08-Jan-21 08:57 33.939820 -118.419765 79 127ft 0kts
08-Jan-21 08:58 33.939820 -118.419765 79 127ft 0kts
08-Jan-21 08:59 33.939820 -118.419765 79 127ft 0kts
08-Jan-21 09:00 33.939820 -118.419765 79 127ft 0kts
08-Jan-21 09:01 33.939820 -118.419765 79 127ft 0kts
08-Jan-21 09:02 33.939820 -118.419765 79 127ft 0kts
08-Jan-21 09:03 33.939820 -118.419765 79 127ft 0kts
08-Jan-21 09:04 33.939820 -118.419765 79 127ft 0kts
08-Jan-21 09:05 33.939820 -118.419765 79 127ft 0kts
08-Jan-21 09:06 33.939820 -118.419765 79 127ft 0kts
08-Jan-21 09:07 33.939820 -118.419765 79 127ft 0kts
08-Jan-21 09:08 33.939820 -118.419765 79 127ft 0kts
08-Jan-21 09:09 33.939820 -118.419765 79 127ft 0kts
08-Jan-21 09:10 33.939820 -118.419765 79 127ft 0kts
08-Jan-21 09:11 33.939820 -118.419765 79 127ft 0kts
08-Jan-21 09:12 33.939820 -118.419765 79 127ft 0kts
08-Jan-21 09:13 33.939820 -118.419765 79 127ft 0kts
08-Jan-21 09:14 33.939820 -118.419765 79 127ft 0kts
08-Jan-21 09:15 33.939820 -118.419765 79 127ft 0kts
08-Jan-21 09:16 33.939820 -118.419765 79 127ft 0kts
08-Jan-21 09:17 33.939820 -118.419765 79 127ft 0kts
08-Jan-21 09:19 33.939820 -118.419765 79 127ft 0kts
08-Jan-21 09:20 33.939820 -118.419765 79 127ft 0kts
08-Jan-21 09:21 33.939820 -118.419765 79 127ft 0kts
08-Jan-21 09:22 33.939820 -118.419765 79 127ft 0kts
08-Jan-21 09:23 33.939820 -118.419765 79 127ft 0kts
08-Jan-21 09:24 33.939820 -118.419765 79 127ft 0kts
08-Jan-21 09:25 33.939826 -118.419708 91 127ft 2kts
08-Jan-21 09:26 33.937876 -118.419655 150 127ft 9kts
08-Jan-21 09:27 33.937935 -118.416296 83 127ft 15kts
08-Jan-21 09:28 33.937865 -118.412448 160 127ft 7kts
08-Jan-21 09:29 33.937901 -118.408572 82 127ft 15kts
08-Jan-21 09:30 33.938469 -118.403067 81 127ft 19kts
08-Jan-21 09:31 33.939172 -118.396176 82 127ft 21kts
08-Jan-21 09:32 33.939930 -118.388782 82 127ft 22kts
08-Jan-21 09:33 33.940655 -118.381592 82 127ft 13kts
08-Jan-21 09:33 33.940655 -118.380564 126 127ft 0kts
08-Jan-21 09:35 33.940655 -118.380564 126 127ft 0kts
08-Jan-21 09:36 33.940655 -118.380564 126 127ft 0kts
08-Jan-21 09:36 33.940655 -118.380564 126 127ft 0kts
08-Jan-21 09:37 33.940584 -118.380428 121 127ft 4kts
08-Jan-21 09:38 33.939667 -118.381943 262 127ft 51kts
08-Jan-21 09:40 33.935835 -118.420051 263 1126ft 125kts
08-Jan-21 09:40 33.931342 -118.456992 248 1798ft 143kts
08-Jan-21 09:41 33.899502 -118.485268 213 2593ft 147kts
08-Jan-21 09:42 33.865832 -118.512004 213 3381ft 147kts
08-Jan-21 09:43 33.829999 -118.510374 152 4120ft 146kts
08-Jan-21 09:44 33.796094 -118.490032 132 4760ft 142kts
08-Jan-21 09:45 33.795131 -118.446370 88 5380ft 139kts
08-Jan-21 09:46 33.794073 -118.401213 89 5988ft 140kts
08-Jan-21 09:47 33.792469 -118.353898 89 6393ft 145kts
08-Jan-21 09:48 33.790841 -118.307885 88 6966ft 143kts
08-Jan-21 09:49 33.789251 -118.262363 88 7540ft 143kts
08-Jan-21 09:50 33.787618 -118.215904 88 8125ft 142kts
08-Jan-21 09:51 33.785971 -118.169608 87 8714ft 141kts
08-Jan-21 09:52 33.784387 -118.121303 87 8854ft 158kts
08-Jan-21 09:53 33.782678 -118.068691 88 8816ft 162kts
08-Jan-21 09:54 33.779386 -118.017845 90 8850ft 162kts
08-Jan-21 09:55 33.775493 -117.966043 90 8888ft 162kts
08-Jan-21 09:56 33.771647 -117.914859 90 8929ft 161kts
08-Jan-21 09:57 33.767858 -117.864734 91 8972ft 162kts
08-Jan-21 09:58 33.763966 -117.814577 90 9248ft 155kts
08-Jan-21 09:59 33.760111 -117.765955 90 9824ft 139kts
08-Jan-21 10:00 33.756575 -117.723307 89 10588ft 128kts
08-Jan-21 10:01 33.753216 -117.680579 89 11008ft 145kts
08-Jan-21 10:02 33.749612 -117.630836 90 11002ft 160kts
08-Jan-21 10:03 33.741950 -117.578782 92 11001ft 163kts
08-Jan-21 10:04 33.737345 -117.525505 90 10999ft 163kts
08-Jan-21 10:05 33.733395 -117.473446 90 10997ft 162kts
08-Jan-21 10:06 33.729017 -117.420391 100 10989ft 165kts
08-Jan-21 10:07 33.718370 -117.368375 90 10995ft 161kts
08-Jan-21 10:08 33.714360 -117.315276 89 10998ft 161kts
08-Jan-21 10:09 33.706701 -117.262565 91 11003ft 162kts
08-Jan-21 10:10 33.702570 -117.209983 89 11009ft 161kts
08-Jan-21 10:11 33.698909 -117.156649 89 11014ft 162kts
08-Jan-21 10:12 33.695246 -117.103165 89 11019ft 162kts
08-Jan-21 10:13 33.691642 -117.049722 89 11018ft 162kts
08-Jan-21 10:14 33.688017 -116.996165 89 11018ft 162kts
08-Jan-21 10:15 33.684383 -116.942826 90 11018ft 162kts
08-Jan-21 10:16 33.680729 -116.889596 91 11019ft 163kts
08-Jan-21 10:17 33.676950 -116.835619 91 11014ft 163kts
08-Jan-21 10:18 33.673106 -116.781767 91 11006ft 163kts
08-Jan-21 10:19 33.669249 -116.728283 91 10997ft 162kts
08-Jan-21 10:20 33.665292 -116.672629 91 10556ft 174kts
08-Jan-21 10:21 33.661126 -116.614841 91 10072ft 176kts
08-Jan-21 10:22 33.656911 -116.556543 91 9584ft 177kts
08-Jan-21 10:23 33.652672 -116.498095 91 9097ft 178kts
08-Jan-21 10:24 33.648467 -116.441005 91 8873ft 172kts
08-Jan-21 10:25 33.644268 -116.383229 92 8391ft 177kts
08-Jan-21 10:26 33.639949 -116.324563 92 7901ft 178kts
08-Jan-21 10:27 33.635588 -116.265764 92 7411ft 179kts
08-Jan-21 10:28 33.631229 -116.206965 92 6515ft 175kts
08-Jan-21 10:29 33.628853 -116.150126 80 5629ft 171kts
08-Jan-21 10:30 33.632790 -116.093939 107 4722ft 173kts
08-Jan-21 10:31 33.599461 -116.097859 266 3965ft 158kts
08-Jan-21 10:32 33.613807 -116.135820 305 3972ft 121kts
08-Jan-21 10:33 33.632862 -116.169496 306 3972ft 124kts
08-Jan-21 10:34 33.652232 -116.202108 305 3360ft 114kts
08-Jan-21 10:35 33.669056 -116.230790 305 2962ft 89kts
08-Jan-21 10:36 33.683204 -116.255073 305 2989ft 113kts
08-Jan-21 10:37 33.702226 -116.287663 305 2975ft 121kts
08-Jan-21 10:38 33.721272 -116.320457 306 2977ft 120kts
08-Jan-21 10:39 33.740248 -116.353180 306 2978ft 120kts
08-Jan-21 10:40 33.758869 -116.385951 306 2980ft 119kts
08-Jan-21 10:41 33.776020 -116.414455 307 2627ft 91kts
08-Jan-21 10:42 33.780297 -116.444788 279 2262ft 90kts
08-Jan-21 10:43 33.791512 -116.470477 320 1588ft 90kts
08-Jan-21 10:44 33.809744 -116.487040 325 875ft 74kts
08-Jan-21 10:45 33.826764 -116.502185 324 483ft 69kts
08-Jan-21 10:46 33.834472 -116.508964 326 479ft 14kts
08-Jan-21 10:47 33.835207 -116.508718 144 479ft 0kts
08-Jan-21 10:48 33.834640 -116.508212 140 479ft 16kts
08-Jan-21 10:49 33.830906 -116.504894 143 479ft 17kts
08-Jan-21 10:50 33.826488 -116.501018 142 479ft 19kts
08-Jan-21 10:51 33.823955 -116.498710 58 479ft 0kts
08-Jan-21 10:52 33.823955 -116.498710 58 479ft 0kts
08-Jan-21 10:53 33.823955 -116.498710 58 479ft 0kts

Navigation Log

Ident Type
Flight plan parsing failed, navigation log unavailable